Time;durP1;ratioP1;P1;durP2;ratioP2;P2;SDS_P1;SDS_P2;PMS_P1;PMS_P2;Temp;Humidity;BMP_temperature;BMP_pressure;BME280_temperature;BME280_humidity;BME280_pressure;Samples;Min_cycle;Max_cycle;Signal;HPM_P1;HPM_P2
2022/11/10 00:00:27;;;;;;;6.67;2.43;;;11.50;99.90;;;;;;5026861;28;20202;-64
2022/11/10 00:02:53;;;;;;;4.95;1.92;;;11.40;99.90;;;;;;5015540;28;20194;-64
2022/11/10 00:05:18;;;;;;;5.70;2.67;;;11.40;99.90;;;;;;5031496;28;20214;-64
2022/11/10 00:07:44;;;;;;;6.53;2.27;;;11.40;99.90;;;;;;5013348;28;20199;-64
2022/11/10 00:10:10;;;;;;;2.97;2.05;;;11.40;99.90;;;;;;5028955;28;20304;-63
2022/11/10 00:12:35;;;;;;;6.03;1.80;;;11.40;99.90;;;;;;5031089;28;20274;-64
2022/11/10 00:17:45;;;;;;;6.00;1.93;;;11.20;99.90;;;;;;5031487;28;20256;-64
2022/11/10 00:20:11;;;;;;;4.20;2.50;;;11.30;99.90;;;;;;5024664;28;20190;-64
2022/11/10 00:22:38;;;;;;;2.40;2.13;;;11.40;99.90;;;;;;5026685;28;20651;-64
2022/11/10 00:25:05;;;;;;;8.00;2.25;;;11.20;99.90;;;;;;5023198;28;20622;-64
2022/11/10 00:27:32;;;;;;;2.83;1.87;;;11.10;99.90;;;;;;5019597;28;20656;-63
2022/11/10 00:29:57;;;;;;;4.63;2.05;;;11.10;99.90;;;;;;5008567;28;20606;-64
2022/11/10 00:32:23;;;;;;;7.13;2.70;;;11.00;99.90;;;;;;5048132;28;20640;-63
2022/11/10 00:34:49;;;;;;;5.30;2.13;;;11.00;99.90;;;;;;5015811;28;20190;-64
2022/11/10 00:37:15;;;;;;;4.70;3.10;;;11.10;99.90;;;;;;5030885;28;20191;-64
2022/11/10 00:39:40;;;;;;;7.47;2.40;;;11.20;99.90;;;;;;5019871;28;20178;-64
2022/11/10 00:42:06;;;;;;;8.97;2.07;;;11.10;99.90;;;;;;5028228;28;20662;-64
2022/11/10 00:44:32;;;;;;;9.50;2.90;;;11.00;99.90;;;;;;5022165;28;20182;-64
2022/11/10 00:46:58;;;;;;;7.17;2.47;;;10.90;99.90;;;;;;5023204;28;20213;-64
2022/11/10 00:49:24;;;;;;;5.80;2.13;;;10.90;99.90;;;;;;5028492;28;20183;-66
2022/11/10 00:51:49;;;;;;;7.93;2.67;;;11.00;99.90;;;;;;5025254;28;20187;-63
2022/11/10 00:54:15;;;;;;;6.27;2.40;;;11.00;99.90;;;;;;5029111;28;20193;-64
2022/11/10 00:56:41;;;;;;;8.17;2.60;;;11.10;99.90;;;;;;5026543;28;20585;-64
2022/11/10 00:59:07;;;;;;;4.70;2.90;;;11.10;99.90;;;;;;5037692;28;20198;-64
2022/11/10 01:01:32;;;;;;;7.20;2.17;;;11.00;99.90;;;;;;5031418;28;20711;-64
2022/11/10 01:03:58;;;;;;;5.70;2.20;;;11.00;99.90;;;;;;5006618;28;20282;-64
2022/11/10 01:06:23;;;;;;;7.17;2.77;;;11.00;99.90;;;;;;5011869;28;20551;-65
2022/11/10 01:08:49;;;;;;;5.43;2.83;;;11.20;99.90;;;;;;5010027;28;20209;-64
2022/11/10 01:11:20;;;;;;;5.50;2.83;;;11.20;99.90;;;;;;5029260;28;20658;-64
2022/11/10 01:13:48;;;;;;;6.47;2.50;;;11.20;99.90;;;;;;5025300;28;20219;-64
2022/11/10 01:16:20;;;;;;;10.20;2.30;;;11.30;99.90;;;;;;5016597;28;20187;-64
2022/11/10 01:18:54;;;;;;;6.27;2.50;;;11.40;99.90;;;;;;5016088;28;20184;-66
2022/11/10 01:21:21;;;;;;;4.50;2.73;;;11.40;99.90;;;;;;5026534;28;20178;-64
2022/11/10 01:23:47;;;;;;;5.00;2.67;;;11.50;99.90;;;;;;5026695;28;20191;-64
2022/11/10 01:26:14;;;;;;;7.87;2.60;;;11.40;99.90;;;;;;5030208;28;20211;-64
2022/11/10 01:28:39;;;;;;;11.70;2.40;;;11.40;99.90;;;;;;5027961;28;20570;-65
2022/11/10 01:31:11;;;;;;;5.05;2.58;;;11.30;99.90;;;;;;5024916;28;20190;-64
2022/11/10 01:33:37;;;;;;;7.13;2.00;;;11.20;99.90;;;;;;5035597;28;20198;-64
2022/11/10 01:36:03;;;;;;;5.30;2.83;;;11.10;99.90;;;;;;5035256;28;20191;-64
2022/11/10 01:38:31;;;;;;;10.93;2.80;;;11.10;99.90;;;;;;5019809;28;20195;-63
2022/11/10 01:40:58;;;;;;;10.73;3.23;;;11.10;99.90;;;;;;5028693;28;20277;-64
2022/11/10 01:43:24;;;;;;;6.20;2.93;;;11.10;99.90;;;;;;5032361;28;20198;-64
2022/11/10 01:46:03;;;;;;;8.97;2.33;;;11.00;99.90;;;;;;5034199;28;20210;-65
2022/11/10 01:48:36;;;;;;;8.23;3.50;;;11.00;99.90;;;;;;5016633;28;20222;-67
2022/11/10 01:51:19;;;;;;;5.47;2.20;;;11.10;99.90;;;;;;5016369;28;20202;-64
2022/11/10 01:53:50;;;;;;;5.40;3.60;;;11.00;99.90;;;;;;5024228;28;20274;-62
2022/11/10 01:56:16;;;;;;;9.50;2.60;;;11.00;99.90;;;;;;5031614;28;20550;-63
2022/11/10 01:58:52;;;;;;;9.67;2.37;;;10.90;99.90;;;;;;5035824;28;20187;-63
2022/11/10 02:01:18;;;;;;;4.37;2.77;;;11.00;99.90;;;;;;5021779;28;20273;-63
2022/11/10 02:03:50;;;;;;;9.30;2.77;;;11.10;99.90;;;;;;5021388;28;20223;-63
2022/11/10 02:06:18;;;;;;;5.57;2.80;;;11.10;99.90;;;;;;5022423;28;20264;-64
2022/11/10 02:08:45;;;;;;;7.30;2.17;;;11.00;99.90;;;;;;5016101;28;20209;-67
2022/11/10 02:11:11;;;;;;;7.33;2.10;;;11.10;99.90;;;;;;5014129;28;20275;-63
2022/11/10 02:13:37;;;;;;;9.60;2.93;;;11.10;99.90;;;;;;5028929;28;20328;-63
2022/11/10 02:16:03;;;;;;;5.13;2.67;;;11.20;99.90;;;;;;5030582;28;20611;-63
2022/11/10 02:18:28;;;;;;;4.50;1.60;;;11.10;99.90;;;;;;5019925;28;20578;-63
2022/11/10 02:20:54;;;;;;;7.93;2.67;;;11.10;99.90;;;;;;5032947;28;20183;-62
2022/11/10 02:23:29;;;;;;;7.40;2.50;;;10.90;99.90;;;;;;5029852;28;20213;-63
2022/11/10 02:25:55;;;;;;;7.93;2.03;;;11.00;99.90;;;;;;5030864;28;20206;-65
2022/11/10 02:28:21;;;;;;;5.73;2.57;;;11.00;99.90;;;;;;5033804;28;20194;-64
2022/11/10 02:30:47;;;;;;;5.77;3.07;;;11.00;99.90;;;;;;5038414;28;20245;-64
2022/11/10 02:33:16;;;;;;;6.97;2.77;;;11.10;99.90;;;;;;5034324;28;20275;-64
2022/11/10 02:35:43;;;;;;;8.17;1.83;;;10.90;99.90;;;;;;5030711;28;20661;-64
2022/11/10 02:38:08;;;;;;;7.33;2.40;;;10.90;99.90;;;;;;5029587;28;20187;-64
2022/11/10 02:40:34;;;;;;;7.63;2.77;;;10.90;99.90;;;;;;5031310;28;20607;-63
2022/11/10 02:43:01;;;;;;;6.47;2.63;;;10.90;99.90;;;;;;5030947;28;20178;-62
2022/11/10 02:45:26;;;;;;;4.00;1.80;;;10.80;99.90;;;;;;5021467;28;20243;-63
2022/11/10 02:47:52;;;;;;;2.80;1.70;;;10.70;99.90;;;;;;5025157;28;20604;-64
2022/11/10 02:50:18;;;;;;;4.83;2.47;;;10.80;99.90;;;;;;5035798;28;20490;-64
2022/11/10 02:52:43;;;;;;;3.03;1.90;;;10.90;99.90;;;;;;5019248;28;20278;-63
2022/11/10 02:55:09;;;;;;;5.57;2.73;;;10.90;99.90;;;;;;5026365;28;20201;-64
2022/11/10 02:57:36;;;;;;;2.80;1.73;;;10.90;99.90;;;;;;5017348;28;20198;-64
2022/11/10 03:00:02;;;;;;;11.27;3.70;;;11.00;99.90;;;;;;5025680;28;20190;-64
2022/11/10 03:02:28;;;;;;;4.10;2.33;;;10.90;99.90;;;;;;5028372;28;20645;-64
2022/11/10 03:04:53;;;;;;;5.20;1.73;;;10.90;99.90;;;;;;5015205;28;20222;-64
2022/11/10 03:07:19;;;;;;;12.47;3.20;;;10.70;99.90;;;;;;5048950;28;20191;-64
2022/11/10 03:09:44;;;;;;;5.33;2.23;;;10.80;99.90;;;;;;5032850;28;20186;-64
2022/11/10 03:12:10;;;;;;;6.40;2.33;;;10.70;99.90;;;;;;5023632;28;20183;-64
2022/11/10 03:14:36;;;;;;;7.67;2.03;;;10.60;99.90;;;;;;5032703;28;20221;-64
2022/11/10 03:17:01;;;;;;;4.77;1.90;;;10.60;99.90;;;;;;5032397;28;20190;-64
2022/11/10 03:19:27;;;;;;;3.10;1.53;;;10.60;99.90;;;;;;5033570;28;20191;-65
2022/11/10 03:21:53;;;;;;;5.73;2.57;;;10.70;99.90;;;;;;5023667;28;20196;-64
2022/11/10 03:24:18;;;;;;;3.27;1.97;;;10.70;99.90;;;;;;5032373;28;20195;-65
2022/11/10 03:26:44;;;;;;;7.57;2.13;;;10.60;99.90;;;;;;5024028;28;20218;-64
2022/11/10 03:29:10;;;;;;;2.07;1.50;;;10.80;99.90;;;;;;5027786;28;20209;-63
2022/11/10 03:31:35;;;;;;;5.93;2.83;;;10.70;99.90;;;;;;5021650;28;20195;-64
2022/11/10 03:34:01;;;;;;;6.03;2.07;;;10.60;99.90;;;;;;5032560;28;20233;-64
2022/11/10 03:36:26;;;;;;;3.30;2.10;;;10.60;99.90;;;;;;5032045;28;20201;-63
2022/11/10 03:38:52;;;;;;;11.07;3.17;;;10.70;99.90;;;;;;5021610;28;20246;-63
2022/11/10 03:41:18;;;;;;;7.73;2.70;;;10.70;99.90;;;;;;5019149;28;20198;-64
2022/11/10 03:43:44;;;;;;;6.50;2.07;;;10.70;99.90;;;;;;5012786;28;20194;-64
2022/11/10 03:46:09;;;;;;;2.90;1.90;;;10.70;99.90;;;;;;5024094;28;20263;-64
2022/11/10 03:48:35;;;;;;;5.40;3.90;;;10.70;99.90;;;;;;5032045;28;20217;-63
2022/11/10 03:51:01;;;;;;;7.87;2.13;;;10.80;99.90;;;;;;5032113;28;20186;-64
2022/11/10 03:53:26;;;;;;;7.47;2.40;;;10.90;99.90;;;;;;5021106;28;20225;-64
2022/11/10 03:55:52;;;;;;;10.77;1.83;;;10.70;99.90;;;;;;4995584;28;20597;-64
2022/11/10 03:58:17;;;;;;;9.20;1.73;;;10.70;99.90;;;;;;5027210;28;20202;-64
2022/11/10 04:00:43;;;;;;;1.90;1.70;;;10.70;99.90;;;;;;5026487;28;20182;-64
2022/11/10 04:03:09;;;;;;;9.70;3.63;;;10.80;99.90;;;;;;5027931;28;20186;-64
2022/11/10 04:11:03;;;;;;;4.97;1.93;;;10.80;99.90;;;;;;5020867;28;20186;-64
2022/11/10 04:16:13;;;;;;;6.77;2.70;;;10.90;99.90;;;;;;5003268;28;20194;-64
2022/11/10 04:18:38;;;;;;;5.90;2.03;;;10.80;99.90;;;;;;5026282;28;20190;-64
2022/11/10 04:21:04;;;;;;;9.17;2.77;;;10.80;99.90;;;;;;5045156;28;20194;-64
2022/11/10 04:23:35;;;;;;;12.57;2.27;;;10.80;99.90;;;;;;5032409;28;20182;-64
2022/11/10 04:26:31;;;;;;;8.13;2.00;;;10.80;99.90;;;;;;5014971;28;20210;-64
2022/11/10 04:29:02;;;;;;;5.53;2.87;;;10.70;99.90;;;;;;5026162;28;20228;-64
2022/11/10 04:31:30;;;;;;;10.40;2.40;;;10.70;99.90;;;;;;5031469;28;20187;-64
2022/11/10 04:33:57;;;;;;;6.20;1.93;;;10.70;99.90;;;;;;5031454;28;20182;-64
2022/11/10 04:36:28;;;;;;;3.33;2.10;;;10.80;99.90;;;;;;5032233;28;20213;-64
2022/11/10 04:38:54;;;;;;;10.70;2.13;;;10.60;99.90;;;;;;5028331;28;20221;-63
2022/11/10 04:41:21;;;;;;;5.93;2.90;;;10.70;99.90;;;;;;5029939;28;20190;-64
2022/11/10 04:43:46;;;;;;;3.00;2.50;;;10.50;99.90;;;;;;5017064;28;20560;-64
2022/11/10 04:46:18;;;;;;;5.17;2.77;;;10.40;99.90;;;;;;5017210;28;20206;-64
2022/11/10 04:48:44;;;;;;;9.20;2.47;;;10.40;99.90;;;;;;5020621;28;20195;-63
2022/11/10 04:51:11;;;;;;;3.13;2.03;;;10.40;99.90;;;;;;5028032;28;20562;-64
2022/11/10 04:53:36;;;;;;;7.47;2.20;;;10.40;99.90;;;;;;5029158;28;20194;-63
2022/11/10 04:56:02;;;;;;;6.67;2.27;;;10.40;99.90;;;;;;5032198;28;20194;-63
2022/11/10 04:58:28;;;;;;;5.37;2.57;;;10.40;99.90;;;;;;5030219;28;20288;-63
2022/11/10 05:00:53;;;;;;;5.13;1.80;;;10.50;99.90;;;;;;5035537;28;20208;-63
2022/11/10 05:03:19;;;;;;;2.80;2.03;;;10.50;99.90;;;;;;5016312;28;20187;-64
2022/11/10 05:05:45;;;;;;;4.90;2.60;;;10.40;99.90;;;;;;5034326;28;20574;-65
2022/11/10 05:08:11;;;;;;;5.90;2.10;;;10.30;99.90;;;;;;5031765;28;20199;-63
2022/11/10 05:10:37;;;;;;;3.03;1.80;;;10.30;99.90;;;;;;5031221;28;20202;-64
2022/11/10 05:13:03;;;;;;;6.77;2.40;;;10.40;99.90;;;;;;5032566;28;20636;-65
2022/11/10 05:15:30;;;;;;;5.60;2.43;;;10.50;99.90;;;;;;5034917;28;20195;-62
2022/11/10 05:17:56;;;;;;;6.90;2.93;;;10.40;99.90;;;;;;5035828;28;20174;-63
2022/11/10 05:20:23;;;;;;;11.63;2.40;;;10.40;99.90;;;;;;5036154;28;20233;-63
2022/11/10 05:25:37;;;;;;;4.30;2.67;;;10.50;99.90;;;;;;5028777;28;20217;-64
2022/11/10 05:28:04;;;;;;;8.07;2.63;;;10.50;99.90;;;;;;5032198;28;20214;-63
2022/11/10 05:30:30;;;;;;;3.07;2.43;;;10.40;99.90;;;;;;5017357;28;20229;-62
2022/11/10 05:32:56;;;;;;;10.70;2.43;;;10.40;99.90;;;;;;5035354;28;20186;-63
2022/11/10 05:35:22;;;;;;;15.63;3.50;;;10.30;99.90;;;;;;5014565;28;20675;-63
2022/11/10 05:37:48;;;;;;;5.43;3.70;;;10.40;99.90;;;;;;5034481;28;20187;-64
2022/11/10 05:40:14;;;;;;;8.13;2.27;;;10.40;99.90;;;;;;5018494;28;20546;-63
2022/11/10 05:42:45;;;;;;;16.93;3.43;;;10.50;99.90;;;;;;5028909;28;20214;-64
2022/11/10 05:45:11;;;;;;;6.67;2.53;;;10.40;99.90;;;;;;5033389;28;20263;-64
2022/11/10 05:47:37;;;;;;;6.00;2.23;;;10.40;99.90;;;;;;5016239;28;20218;-65
2022/11/10 05:50:03;;;;;;;5.03;1.93;;;10.40;99.90;;;;;;5023466;28;20257;-65
2022/11/10 05:52:29;;;;;;;8.07;2.40;;;10.40;99.90;;;;;;5029008;28;20187;-63
2022/11/10 05:54:54;;;;;;;8.50;3.13;;;10.40;99.90;;;;;;5018092;28;20195;-66
2022/11/10 05:57:21;;;;;;;5.20;2.73;;;10.40;99.90;;;;;;5016262;28;20219;-63
2022/11/10 05:59:46;;;;;;;9.03;3.03;;;10.40;99.90;;;;;;5033569;28;20667;-64
2022/11/10 06:02:12;;;;;;;3.70;2.03;;;10.50;99.90;;;;;;5021461;28;20190;-63
2022/11/10 06:04:38;;;;;;;2.17;1.97;;;10.30;99.90;;;;;;5028723;28;20186;-63
2022/11/10 06:07:03;;;;;;;5.47;2.30;;;10.30;99.90;;;;;;5015591;28;20711;-63
2022/11/10 06:09:29;;;;;;;4.97;1.90;;;10.40;99.90;;;;;;5018334;28;20597;-63
2022/11/10 06:11:54;;;;;;;6.77;2.43;;;10.50;99.90;;;;;;5038570;28;20197;-64
2022/11/10 06:14:20;;;;;;;5.53;2.43;;;10.40;99.90;;;;;;5028162;28;20549;-63
2022/11/10 06:16:46;;;;;;;8.73;2.87;;;10.40;99.90;;;;;;5031113;28;20194;-63
2022/11/10 06:19:11;;;;;;;5.13;2.50;;;10.30;99.90;;;;;;5032665;28;20186;-64
2022/11/10 06:21:37;;;;;;;7.27;2.57;;;10.10;99.90;;;;;;5034095;28;20203;-64
2022/11/10 06:24:03;;;;;;;7.17;2.43;;;10.20;99.90;;;;;;5026838;28;20184;-64
2022/11/10 06:26:29;;;;;;;8.30;3.30;;;10.10;99.90;;;;;;5032526;28;20217;-64
2022/11/10 06:28:56;;;;;;;6.93;2.63;;;10.20;99.90;;;;;;5022700;28;20214;-63
2022/11/10 06:31:22;;;;;;;9.83;2.43;;;10.10;99.90;;;;;;5004094;28;20205;-63
2022/11/10 06:33:48;;;;;;;6.03;2.50;;;10.10;99.90;;;;;;5024548;28;20642;-61
2022/11/10 06:36:14;;;;;;;14.07;2.83;;;10.20;99.90;;;;;;5030722;28;20190;-63
2022/11/10 06:38:40;;;;;;;9.17;2.90;;;10.20;99.90;;;;;;5033980;28;20198;-63
2022/11/10 06:41:05;;;;;;;3.90;3.00;;;10.20;99.90;;;;;;5033579;28;20187;-63
2022/11/10 06:43:31;;;;;;;6.23;2.37;;;10.30;99.90;;;;;;5034327;28;20617;-64
2022/11/10 06:45:57;;;;;;;9.23;2.13;;;10.20;99.90;;;;;;5031292;28;20222;-63
2022/11/10 06:48:22;;;;;;;3.77;1.90;;;10.20;99.90;;;;;;5020337;28;20197;-64
2022/11/10 06:50:48;;;;;;;4.67;1.90;;;10.30;99.90;;;;;;5023015;28;20656;-63
2022/11/10 06:53:14;;;;;;;4.77;2.20;;;10.40;99.90;;;;;;5030755;28;20539;-64
2022/11/10 06:55:40;;;;;;;3.17;1.90;;;10.30;99.90;;;;;;5019304;28;20199;-64
2022/11/10 06:58:05;;;;;;;3.97;2.40;;;10.30;99.90;;;;;;5026735;28;20194;-66
2022/11/10 07:00:31;;;;;;;7.90;2.20;;;10.30;99.90;;;;;;5030889;28;20190;-64
2022/11/10 07:03:01;;;;;;;9.10;3.00;;;10.20;99.90;;;;;;5029867;28;20717;-64
2022/11/10 07:05:27;;;;;;;2.93;1.90;;;10.10;99.90;;;;;;5030550;28;20298;-64
2022/11/10 07:07:53;;;;;;;8.07;2.30;;;10.20;99.90;;;;;;5003194;28;20274;-65
2022/11/10 07:10:18;;;;;;;4.50;2.47;;;10.30;99.90;;;;;;5033858;28;20186;-64
2022/11/10 07:12:44;;;;;;;10.90;4.17;;;10.30;99.90;;;;;;5029597;28;20265;-64
2022/11/10 07:15:10;;;;;;;4.63;2.83;;;10.30;99.90;;;;;;5021425;28;20199;-64
2022/11/10 07:17:42;;;;;;;9.10;2.20;;;10.30;99.90;;;;;;5032043;28;20706;-64
2022/11/10 07:20:09;;;;;;;8.27;2.50;;;10.40;99.90;;;;;;5034331;28;20186;-64
2022/11/10 07:22:34;;;;;;;6.30;2.40;;;10.50;99.90;;;;;;5032563;28;20644;-64
2022/11/10 07:25:00;;;;;;;8.10;3.43;;;10.50;99.90;;;;;;5026925;28;20268;-64
2022/11/10 07:27:25;;;;;;;8.90;2.07;;;10.50;99.90;;;;;;5033556;28;20217;-64
2022/11/10 07:29:51;;;;;;;5.13;2.10;;;10.50;99.90;;;;;;5020722;28;20198;-64
2022/11/10 07:32:17;;;;;;;5.23;3.03;;;10.60;99.90;;;;;;5033525;28;20690;-64
2022/11/10 07:34:42;;;;;;;10.53;2.37;;;10.60;99.90;;;;;;5033258;28;20186;-64
2022/11/10 07:37:08;;;;;;;9.87;3.50;;;10.50;99.90;;;;;;5027071;28;20186;-63
2022/11/10 07:39:33;;;;;;;10.20;2.57;;;10.50;99.90;;;;;;5014135;28;20551;-64
2022/11/10 07:41:59;;;;;;;3.13;2.23;;;10.60;99.90;;;;;;5027194;28;20240;-64
2022/11/10 07:44:26;;;;;;;8.07;2.63;;;10.80;99.90;;;;;;5012327;28;20183;-64
2022/11/10 07:46:52;;;;;;;7.73;2.20;;;10.90;99.90;;;;;;5028430;28;20261;-64
2022/11/10 07:49:17;;;;;;;5.47;3.00;;;11.00;99.90;;;;;;5024027;28;20284;-64
2022/11/10 07:51:43;;;;;;;6.83;2.57;;;10.90;99.90;;;;;;5034016;28;20222;-66
2022/11/10 07:54:09;;;;;;;9.33;2.60;;;10.90;99.90;;;;;;5026730;28;20608;-64
2022/11/10 07:56:35;;;;;;;7.40;2.33;;;10.90;99.90;;;;;;5023671;28;20277;-63
2022/11/10 07:59:00;;;;;;;3.83;2.70;;;10.90;99.90;;;;;;5026467;28;20279;-64
2022/11/10 08:01:26;;;;;;;6.00;3.17;;;11.00;99.90;;;;;;5008006;28;20197;-63
2022/11/10 08:03:52;;;;;;;12.20;2.60;;;11.00;99.90;;;;;;5011955;28;20658;-64
2022/11/10 08:06:18;;;;;;;11.10;2.50;;;11.10;99.90;;;;;;5017210;28;20211;-64
2022/11/10 08:08:45;;;;;;;6.70;2.47;;;11.20;99.90;;;;;;5023401;28;20214;-64
2022/11/10 08:11:11;;;;;;;5.00;2.83;;;11.20;99.90;;;;;;5039279;28;20191;-64
2022/11/10 08:13:38;;;;;;;11.20;2.80;;;11.30;99.90;;;;;;5021535;28;20195;-67
2022/11/10 08:16:04;;;;;;;8.83;2.57;;;11.30;99.90;;;;;;5030802;28;20230;-63
2022/11/10 08:18:30;;;;;;;4.63;2.17;;;11.20;99.90;;;;;;5023978;28;20183;-64
2022/11/10 08:20:56;;;;;;;5.43;2.20;;;11.30;99.90;;;;;;5019154;28;20194;-64
2022/11/10 08:23:22;;;;;;;11.33;3.13;;;11.40;99.90;;;;;;5010221;28;20198;-64
2022/11/10 08:25:51;;;;;;;3.47;2.10;;;11.40;99.90;;;;;;5027407;28;20683;-63
2022/11/10 08:28:18;;;;;;;5.57;2.33;;;11.50;99.90;;;;;;5018774;28;20294;-64
2022/11/10 08:30:46;;;;;;;7.25;2.58;;;11.60;99.90;;;;;;5018515;28;20282;-64
2022/11/10 08:33:14;;;;;;;3.53;2.47;;;11.60;99.90;;;;;;5020638;28;20686;-64
2022/11/10 08:35:42;;;;;;;8.73;2.67;;;11.80;99.90;;;;;;5018970;28;20186;-63
2022/11/10 08:38:16;;;;;;;3.88;2.35;;;11.80;99.90;;;;;;5019203;28;20667;-64
2022/11/10 08:40:43;;;;;;;8.20;2.35;;;11.70;99.90;;;;;;5036598;28;20217;-64
2022/11/10 08:43:10;;;;;;;8.63;2.70;;;11.80;99.90;;;;;;5018103;28;20191;-64
2022/11/10 08:45:38;;;;;;;7.13;2.60;;;11.80;99.90;;;;;;5021026;28;20666;-64
2022/11/10 08:48:10;;;;;;;9.05;3.85;;;11.80;99.90;;;;;;5032694;28;20221;-64
2022/11/10 08:50:36;;;;;;;7.72;2.38;;;11.90;99.90;;;;;;5022639;28;20218;-64
2022/11/10 08:53:05;;;;;;;6.75;2.92;;;11.90;99.90;;;;;;5021905;28;20190;-64
2022/11/10 08:55:31;;;;;;;5.05;2.72;;;12.00;99.90;;;;;;5023457;28;20712;-64
2022/11/10 08:58:04;;;;;;;7.50;2.77;;;12.10;99.90;;;;;;5013674;28;20236;-64
2022/11/10 09:00:31;;;;;;;8.82;3.88;;;12.10;99.90;;;;;;5020590;28;20190;-64
2022/11/10 09:03:15;;;;;;;8.93;2.88;;;12.10;99.90;;;;;;5023536;28;20189;-64
2022/11/10 09:05:41;;;;;;;8.38;3.08;;;12.10;99.90;;;;;;5028207;28;20836;-64
2022/11/10 09:08:07;;;;;;;8.18;2.47;;;12.20;99.90;;;;;;5014893;28;20195;-66
2022/11/10 09:10:35;;;;;;;6.00;3.08;;;12.20;99.90;;;;;;5014703;28;20525;-65
2022/11/10 09:13:02;;;;;;;5.85;2.22;;;12.20;99.90;;;;;;5017075;28;20259;-64
2022/11/10 09:15:29;;;;;;;13.60;3.22;;;12.30;99.90;;;;;;5027972;28;20196;-64
2022/11/10 09:18:00;;;;;;;9.82;2.88;;;12.50;99.90;;;;;;5012240;28;20187;-64
2022/11/10 09:20:27;;;;;;;3.33;2.45;;;12.60;99.90;;;;;;5032207;28;20193;-64
2022/11/10 09:22:53;;;;;;;9.63;2.03;;;12.60;99.90;;;;;;5028771;28;20201;-64
2022/11/10 09:25:18;;;;;;;6.60;2.28;;;12.60;99.90;;;;;;5030345;28;20207;-65
2022/11/10 09:27:44;;;;;;;2.88;2.33;;;12.80;99.90;;;;;;5029956;28;20183;-64
2022/11/10 09:30:10;;;;;;;7.00;2.83;;;12.80;99.90;;;;;;5030653;28;20652;-64
2022/11/10 09:32:36;;;;;;;4.00;1.92;;;13.00;99.90;;;;;;5029529;28;20182;-65
2022/11/10 09:35:03;;;;;;;2.47;1.92;;;13.20;99.90;;;;;;5029183;28;20702;-65
2022/11/10 09:37:28;;;;;;;11.70;3.42;;;13.50;99.90;;;;;;5028912;28;20636;-63
2022/11/10 09:39:54;;;;;;;8.07;3.17;;;13.70;99.90;;;;;;5028375;28;20193;-64
2022/11/10 09:42:27;;;;;;;9.82;2.78;;;13.60;99.90;;;;;;5013549;28;20663;-64
2022/11/10 09:45:01;;;;;;;7.40;3.30;;;13.50;99.90;;;;;;5021975;28;20176;-64
2022/11/10 09:47:35;;;;;;;9.77;4.20;;;13.30;99.90;;;;;;5031056;28;20549;-64
2022/11/10 09:50:05;;;;;;;9.07;4.60;;;13.30;99.90;;;;;;5023409;28;20190;-64
2022/11/10 09:52:34;;;;;;;10.73;3.15;;;13.20;99.90;;;;;;5035537;28;20225;-64
2022/11/10 09:55:18;;;;;;;8.60;3.30;;;13.30;99.90;;;;;;5048750;28;20635;-64
2022/11/10 09:57:46;;;;;;;10.50;4.30;;;13.30;99.90;;;;;;5031748;28;20182;-64
2022/11/10 10:00:17;;;;;;;7.75;3.53;;;13.20;99.90;;;;;;5019818;28;20191;-64
2022/11/10 10:02:52;;;;;;;3.85;3.03;;;13.20;99.90;;;;;;5025268;28;20677;-64
2022/11/10 10:05:45;;;;;;;4.90;2.78;;;13.20;99.90;;;;;;5032713;28;20667;-64
2022/11/10 10:08:43;;;;;;;7.40;3.53;;;13.30;99.90;;;;;;5030830;28;20193;-65
2022/11/10 10:11:23;;;;;;;6.03;2.72;;;13.40;99.90;;;;;;5030340;28;20191;-64
2022/11/10 10:14:08;;;;;;;7.68;3.30;;;13.50;99.90;;;;;;5032281;28;20643;-64
2022/11/10 10:16:55;;;;;;;7.50;2.33;;;13.40;99.90;;;;;;5024388;28;20718;-64
2022/11/10 10:19:44;;;;;;;5.95;2.75;;;13.40;99.90;;;;;;5034370;28;20209;-64
2022/11/10 10:22:43;;;;;;;11.73;2.45;;;13.50;99.90;;;;;;5031863;28;20201;-65
2022/11/10 10:25:26;;;;;;;11.75;2.35;;;13.50;99.90;;;;;;5034706;28;20203;-64
2022/11/10 10:28:24;;;;;;;5.78;2.40;;;13.80;99.90;;;;;;5034727;28;20182;-64
2022/11/10 10:30:50;;;;;;;4.00;2.17;;;13.70;99.90;;;;;;5033513;28;20650;-64
2022/11/10 10:33:19;;;;;;;5.50;3.05;;;13.70;99.90;;;;;;5034371;28;20183;-64
2022/11/10 10:35:47;;;;;;;6.05;2.22;;;13.80;99.90;;;;;;5030028;28;20710;-66
2022/11/10 10:38:32;;;;;;;8.50;2.55;;;13.90;99.90;;;;;;5034707;28;20201;-64
2022/11/10 10:41:11;;;;;;;8.73;2.83;;;13.90;99.90;;;;;;5034384;28;20198;-65
2022/11/10 10:43:37;;;;;;;4.45;2.22;;;14.10;99.90;;;;;;5031695;28;20702;-65
2022/11/10 10:46:07;;;;;;;9.93;2.08;;;14.10;99.90;;;;;;5005513;28;20207;-64
2022/11/10 10:48:33;;;;;;;5.05;2.15;;;14.10;99.90;;;;;;5029725;28;20269;-64
2022/11/10 10:50:59;;;;;;;4.63;2.15;;;14.30;99.90;;;;;;5032895;28;20302;-65
2022/11/10 10:53:24;;;;;;;9.18;2.95;;;14.50;99.90;;;;;;5027593;28;20612;-65
2022/11/10 10:56:11;;;;;;;7.22;2.70;;;14.50;99.90;;;;;;5027767;28;20265;-64
2022/11/10 10:58:53;;;;;;;3.63;2.20;;;14.60;99.90;;;;;;5033430;28;20228;-64
2022/11/10 11:01:38;;;;;;;2.17;1.88;;;14.70;99.90;;;;;;5034216;28;20269;-65
2022/11/10 11:04:28;;;;;;;4.20;1.70;;;14.60;99.90;;;;;;5030259;28;20218;-64
2022/11/10 11:07:03;;;;;;;8.43;2.30;;;14.80;99.90;;;;;;5029385;28;20210;-64
2022/11/10 11:09:39;;;;;;;4.03;2.03;;;14.90;99.90;;;;;;5030705;28;20214;-64
2022/11/10 11:12:11;;;;;;;4.65;2.55;;;14.80;99.90;;;;;;5022977;28;20175;-64
2022/11/10 11:14:36;;;;;;;7.85;1.90;;;14.90;99.90;;;;;;5031644;28;20191;-64
2022/11/10 11:17:20;;;;;;;6.20;2.28;;;15.00;99.90;;;;;;5029183;28;20188;-66
2022/11/10 11:19:50;;;;;;;6.30;2.30;;;15.00;99.90;;;;;;5031299;28;20186;-68
2022/11/10 11:22:49;;;;;;;10.50;2.15;;;15.10;99.90;;;;;;5027642;28;20556;-64
2022/11/10 11:25:39;;;;;;;7.65;2.28;;;15.10;99.90;;;;;;5033652;28;20206;-64
2022/11/10 11:28:19;;;;;;;3.95;2.25;;;14.90;99.90;;;;;;5032138;28;20655;-65
2022/11/10 11:30:54;;;;;;;3.63;3.00;;;15.10;99.90;;;;;;5028356;28;20205;-65
2022/11/10 11:33:37;;;;;;;5.30;2.50;;;15.20;99.90;;;;;;5033874;28;20213;-65
2022/11/10 11:36:25;;;;;;;6.18;1.90;;;15.30;99.90;;;;;;5028649;28;20195;-64
2022/11/10 11:39:11;;;;;;;2.67;1.85;;;15.30;99.90;;;;;;5025599;28;20269;-64
2022/11/10 11:42:02;;;;;;;1.08;1.08;;;15.10;99.90;;;;;;5033557;28;20182;-64
2022/11/10 11:44:39;;;;;;;2.30;1.70;;;15.10;99.90;;;;;;5030414;28;20183;-65
2022/11/10 11:47:41;;;;;;;9.35;3.78;;;15.10;99.90;;;;;;5032869;28;20737;-64
2022/11/10 11:50:31;;;;;;;2.85;1.92;;;15.10;99.90;;;;;;5026807;28;20179;-65
2022/11/10 11:53:02;;;;;;;6.00;2.38;;;15.20;99.90;;;;;;5030179;28;20232;-65
2022/11/10 11:55:58;;;;;;;1.77;1.67;;;15.30;99.90;;;;;;5024290;28;20215;-65
2022/11/10 11:58:43;;;;;;;4.70;1.98;;;15.30;99.90;;;;;;5014662;28;20190;-64
2022/11/10 12:01:30;;;;;;;2.05;1.75;;;15.30;99.90;;;;;;5022121;28;20189;-64
2022/11/10 12:04:31;;;;;;;2.80;1.67;;;15.40;99.90;;;;;;5026854;28;20183;-64
2022/11/10 12:07:11;;;;;;;3.85;1.92;;;15.30;99.90;;;;;;5005428;28;20239;-66
2022/11/10 12:09:56;;;;;;;6.22;2.05;;;15.40;99.90;;;;;;5031578;28;20182;-64
2022/11/10 12:12:31;;;;;;;2.53;1.70;;;15.50;99.90;;;;;;5032770;28;20245;-64
2022/11/10 12:15:18;;;;;;;2.63;1.50;;;15.50;99.90;;;;;;5027576;28;20187;-65
2022/11/10 12:18:17;;;;;;;2.55;1.30;;;15.70;99.90;;;;;;5027624;28;20187;-65
2022/11/10 12:21:02;;;;;;;2.30;1.33;;;15.70;99.90;;;;;;5024935;28;20286;-64
2022/11/10 12:23:47;;;;;;;1.42;1.33;;;15.70;99.90;;;;;;5027875;28;20663;-64
2022/11/10 12:26:28;;;;;;;4.47;2.15;;;15.60;99.90;;;;;;5032256;28;20240;-64
2022/11/10 12:29:19;;;;;;;2.00;1.25;;;15.50;99.90;;;;;;5032933;28;20332;-65
2022/11/10 12:31:46;;;;;;;3.22;1.45;;;15.60;99.90;;;;;;5022413;28;20269;-64
2022/11/10 12:34:21;;;;;;;7.18;1.73;;;15.70;99.90;;;;;;5030393;28;20179;-65
2022/11/10 12:36:50;;;;;;;4.22;1.52;;;15.80;99.90;;;;;;5022350;28;20190;-64
2022/11/10 12:39:20;;;;;;;6.10;1.10;;;15.80;99.90;;;;;;5028428;28;20586;-63
2022/11/10 12:41:54;;;;;;;1.88;1.27;;;16.10;99.90;;;;;;5030869;28;20265;-64
2022/11/10 12:44:36;;;;;;;3.15;1.95;;;16.10;99.90;;;;;;5021096;28;20191;-65
2022/11/10 12:47:06;;;;;;;2.88;1.95;;;16.00;99.90;;;;;;5023291;28;20217;-64
2022/11/10 12:49:37;;;;;;;2.45;1.13;;;16.00;99.90;;;;;;5030944;28;20229;-65
2022/11/10 12:52:18;;;;;;;6.57;1.13;;;15.90;99.90;;;;;;5032505;28;20222;-65
2022/11/10 12:54:45;;;;;;;4.18;1.00;;;15.90;99.90;;;;;;5031989;28;20179;-64
2022/11/10 12:57:16;;;;;;;1.38;1.17;;;16.10;99.90;;;;;;5028858;28;20193;-64
2022/11/10 13:00:32;;;;;;;3.50;1.38;;;16.10;99.90;;;;;;5024735;28;20206;-65
2022/11/10 13:02:58;;;;;;;3.00;1.00;;;16.10;99.90;;;;;;4989968;28;20199;-65
2022/11/10 13:05:33;;;;;;;0.98;0.98;;;16.10;99.90;;;;;;5026097;28;20214;-64
2022/11/10 13:08:18;;;;;;;3.50;1.85;;;16.20;99.90;;;;;;5028628;28;20282;-64
2022/11/10 13:11:14;;;;;;;4.75;1.50;;;16.30;99.90;;;;;;5014980;28;20176;-65
2022/11/10 13:13:45;;;;;;;4.97;2.67;;;16.40;99.90;;;;;;5005130;28;20207;-67